Minerva Zenia — SYNB — position and weather

sailwx.info

Track history (hours):
 
Tides and Currents Weather Stations Pressure Air Temp Water Temp Dewpoint Dewpoint Depression Visibility Wind Speed Wind Dir Waves Ship Positions

Minerva Zenia

Last reported at 2016-Aug-10 10:33 UTC. Time now 2016-Aug-24 12:00 UTC.
Position N 25°51' W 079°31'.
Warning: this ship's position is 14 days out of date.

Length 248 m; draft 13.5 m.

Type: Tanker. MMSI: 240014000.

Date/timePositionNaut miles runAvg speedWind from/ knotsBaromVisibWave heightAir tempDewpointWater temp
2016-Aug-10 10:33N 25°51' W 079°31'1010.4
2016-Aug-10 09:33N 26°01' W 079°31'  
2016-Aug-01 04:26N 36°11' W 027°59'8812.7
2016-Jul-31 21:31N 36°15' W 026°10'1212.9
2016-Jul-31 20:33N 36°15' W 025°55'1312.9
2016-Jul-31 19:34N 36°16' W 025°39'1313.1
2016-Jul-31 18:33N 36°16' W 025°23'1313.3
2016-Jul-31 17:33N 36°17' W 025°06'1313.2
2016-Jul-31 16:33N 36°17' W 024°50'1313.3
2016-Jul-31 15:34N 36°18' W 024°33'1313.0
2016-Jul-31 14:33N 36°18' W 024°17'1312.9
2016-Jul-31 13:33N 36°19' W 024°01'1312.7
2016-Jul-31 12:34N 36°20' W 023°45'  
Track history (hours):
 
Tides and Currents Weather Stations Pressure Air Temp Water Temp Dewpoint Dewpoint Depression Visibility Wind Speed Wind Dir Waves Ship Positions

Minerva Zenia

Last reported at 2016-Aug-10 10:33 UTC. Time now 2016-Aug-24 12:00 UTC.
Position N 25°51' W 079°31'.
Warning: this ship's position is 14 days out of date.

Length 248 m; draft 13.5 m.

Type: Tanker. MMSI: 240014000.

Date/timePositionNaut miles runAvg speedWind from/ knotsBaromVisibWave heightAir tempDewpointWater temp
2016-Aug-10 10:33N 25°51' W 079°31'1010.4
2016-Aug-10 09:33N 26°01' W 079°31'  
2016-Aug-01 04:26N 36°11' W 027°59'8812.7
2016-Jul-31 21:31N 36°15' W 026°10'1212.9
2016-Jul-31 20:33N 36°15' W 025°55'1312.9
2016-Jul-31 19:34N 36°16' W 025°39'1313.1
2016-Jul-31 18:33N 36°16' W 025°23'1313.3
2016-Jul-31 17:33N 36°17' W 025°06'1313.2
2016-Jul-31 16:33N 36°17' W 024°50'1313.3
2016-Jul-31 15:34N 36°18' W 024°33'1313.0
2016-Jul-31 14:33N 36°18' W 024°17'1312.9
2016-Jul-31 13:33N 36°19' W 024°01'1312.7
2016-Jul-31 12:34N 36°20' W 023°45'  

Dump ship's entire track history